sensor_id;sensor_type;location;lat;lon;timestamp;pressure;altitude;pressure_sealevel;temperature;humidity
23589;BME280;11972;48.078;11.876;2023-12-14T00:02:55;94347.97;;;4.82;100.00
23589;BME280;11972;48.078;11.876;2023-12-14T00:06:55;94347.13;;;4.81;100.00
23589;BME280;11972;48.078;11.876;2023-12-14T00:10:56;94352.34;;;4.81;100.00
23589;BME280;11972;48.078;11.876;2023-12-14T00:14:56;94360.84;;;4.83;100.00
23589;BME280;11972;48.078;11.876;2023-12-14T00:18:56;94360.84;;;4.83;100.00
23589;BME280;11972;48.078;11.876;2023-12-14T00:22:57;94365.28;;;4.83;100.00
23589;BME280;11972;48.078;11.876;2023-12-14T00:26:57;94359.25;;;4.82;100.00
23589;BME280;11972;48.078;11.876;2023-12-14T00:30:57;94368.06;;;4.81;100.00
23589;BME280;11972;48.078;11.876;2023-12-14T00:34:57;94368.06;;;4.81;100.00
23589;BME280;11972;48.078;11.876;2023-12-14T00:38:58;94375.28;;;4.79;100.00
23589;BME280;11972;48.078;11.876;2023-12-14T00:42:58;94384.13;;;4.78;100.00
23589;BME280;11972;48.078;11.876;2023-12-14T00:46:59;94387.69;;;4.77;100.00
23589;BME280;11972;48.078;11.876;2023-12-14T00:51:00;94395.22;;;4.80;100.00
23589;BME280;11972;48.078;11.876;2023-12-14T00:55:00;94405.84;;;4.79;100.00
23589;BME280;11972;48.078;11.876;2023-12-14T00:59:00;94408.63;;;4.77;100.00
23589;BME280;11972;48.078;11.876;2023-12-14T01:03:01;94413.06;;;4.77;100.00
23589;BME280;11972;48.078;11.876;2023-12-14T01:07:02;94425.97;;;4.78;100.00
23589;BME280;11972;48.078;11.876;2023-12-14T01:11:02;94432.03;;;4.79;100.00
23589;BME280;11972;48.078;11.876;2023-12-14T01:15:03;94441.31;;;4.81;100.00
23589;BME280;11972;48.078;11.876;2023-12-14T01:19:04;94441.31;;;4.81;100.00
23589;BME280;11972;48.078;11.876;2023-12-14T01:23:05;94450.97;;;4.81;100.00
23589;BME280;11972;48.078;11.876;2023-12-14T01:27:06;94451.63;;;4.83;100.00
23589;BME280;11972;48.078;11.876;2023-12-14T01:31:06;94451.44;;;4.84;100.00
23589;BME280;11972;48.078;11.876;2023-12-14T01:35:07;94467.13;;;4.84;100.00
23589;BME280;11972;48.078;11.876;2023-12-14T01:39:07;94477.25;;;4.87;100.00
23589;BME280;11972;48.078;11.876;2023-12-14T01:43:11;94476.72;;;4.92;100.00
23589;BME280;11972;48.078;11.876;2023-12-14T01:47:11;94473.31;;;4.91;100.00
23589;BME280;11972;48.078;11.876;2023-12-14T01:51:11;94482.16;;;4.90;100.00
23589;BME280;11972;48.078;11.876;2023-12-14T01:55:12;94484.44;;;4.85;100.00
23589;BME280;11972;48.078;11.876;2023-12-14T01:59:13;94491.34;;;4.86;100.00
23589;BME280;11972;48.078;11.876;2023-12-14T02:03:13;94494.91;;;4.85;100.00
23589;BME280;11972;48.078;11.876;2023-12-14T02:07:13;94502.13;;;4.83;100.00
23589;BME280;11972;48.078;11.876;2023-12-14T02:11:14;94515.72;;;4.79;100.00
23589;BME280;11972;48.078;11.876;2023-12-14T02:15:14;94514.44;;;4.75;100.00
23589;BME280;11972;48.078;11.876;2023-12-14T02:19:15;94520.19;;;4.70;100.00
23589;BME280;11972;48.078;11.876;2023-12-14T02:23:15;94523.13;;;4.67;100.00
23589;BME280;11972;48.078;11.876;2023-12-14T02:27:15;94523.47;;;4.64;100.00
23589;BME280;11972;48.078;11.876;2023-12-14T02:31:17;94535.56;;;4.65;100.00
23589;BME280;11972;48.078;11.876;2023-12-14T02:35:17;94546.03;;;4.65;100.00
23589;BME280;11972;48.078;11.876;2023-12-14T02:39:18;94554.84;;;4.64;100.00
23589;BME280;11972;48.078;11.876;2023-12-14T02:43:19;94549.97;;;4.61;100.00
23589;BME280;11972;48.078;11.876;2023-12-14T02:47:19;94546.72;;;4.59;100.00
23589;BME280;11972;48.078;11.876;2023-12-14T02:51:19;94553.75;;;4.58;100.00
23589;BME280;11972;48.078;11.876;2023-12-14T02:55:20;94548.69;;;4.57;100.00
23589;BME280;11972;48.078;11.876;2023-12-14T02:59:20;94556.53;;;4.57;100.00
23589;BME280;11972;48.078;11.876;2023-12-14T03:03:20;94567.97;;;4.56;100.00
23589;BME280;11972;48.078;11.876;2023-12-14T03:07:21;94564.72;;;4.54;100.00
23589;BME280;11972;48.078;11.876;2023-12-14T03:11:22;94564.88;;;4.52;100.00
23589;BME280;11972;48.078;11.876;2023-12-14T03:15:23;94567.66;;;4.51;100.00
23589;BME280;11972;48.078;11.876;2023-12-14T03:19:24;94564.06;;;4.52;100.00
23589;BME280;11972;48.078;11.876;2023-12-14T03:23:24;94578.78;;;4.53;100.00
23589;BME280;11972;48.078;11.876;2023-12-14T03:27:24;94579.75;;;4.52;100.00
23589;BME280;11972;48.078;11.876;2023-12-14T03:31:25;94587.59;;;4.52;100.00
23589;BME280;11972;48.078;11.876;2023-12-14T03:35:25;94598.72;;;4.54;100.00
23589;BME280;11972;48.078;11.876;2023-12-14T03:39:26;94601.97;;;4.56;100.00
23589;BME280;11972;48.078;11.876;2023-12-14T03:43:26;94602.63;;;4.58;100.00
23589;BME280;11972;48.078;11.876;2023-12-14T03:47:26;94618.94;;;4.60;100.00
23589;BME280;11972;48.078;11.876;2023-12-14T03:51:27;94624.84;;;4.62;100.00
23589;BME280;11972;48.078;11.876;2023-12-14T03:55:27;94623.66;;;4.64;100.00
23589;BME280;11972;48.078;11.876;2023-12-14T03:59:27;94631.69;;;4.63;100.00
23589;BME280;11972;48.078;11.876;2023-12-14T04:03:28;94636.94;;;4.63;100.00
23589;BME280;11972;48.078;11.876;2023-12-14T04:07:28;94640.53;;;4.62;100.00
23589;BME280;11972;48.078;11.876;2023-12-14T04:11:28;94642.47;;;4.60;100.00
23589;BME280;11972;48.078;11.876;2023-12-14T04:15:29;94654.56;;;4.61;100.00
23589;BME280;11972;48.078;11.876;2023-12-14T04:19:29;94662.28;;;4.62;100.00
23589;BME280;11972;48.078;11.876;2023-12-14T04:23:29;94671.25;;;4.60;100.00
23589;BME280;11972;48.078;11.876;2023-12-14T04:27:30;94682.38;;;4.62;100.00
23589;BME280;11972;48.078;11.876;2023-12-14T04:31:30;94685.97;;;4.61;100.00
23589;BME280;11972;48.078;11.876;2023-12-14T04:35:34;94696.78;;;4.58;100.00
23589;BME280;11972;48.078;11.876;2023-12-14T04:39:36;94698.56;;;4.57;100.00
23589;BME280;11972;48.078;11.876;2023-12-14T04:43:36;94703.94;;;4.56;100.00
23589;BME280;11972;48.078;11.876;2023-12-14T04:47:37;94710.84;;;4.57;100.00
23589;BME280;11972;48.078;11.876;2023-12-14T04:51:37;94725.69;;;4.56;100.00
23589;BME280;11972;48.078;11.876;2023-12-14T04:55:37;94718.19;;;4.53;100.00
23589;BME280;11972;48.078;11.876;2023-12-14T04:59:41;94727.16;;;4.51;100.00
23589;BME280;11972;48.078;11.876;2023-12-14T05:03:41;94726.19;;;4.52;100.00
23589;BME280;11972;48.078;11.876;2023-12-14T05:07:42;94737.31;;;4.54;100.00
23589;BME280;11972;48.078;11.876;2023-12-14T05:11:43;94745.78;;;4.56;100.00
23589;BME280;11972;48.078;11.876;2023-12-14T05:15:44;94754.63;;;4.55;100.00
23589;BME280;11972;48.078;11.876;2023-12-14T05:19:44;94754.63;;;4.55;100.00
23589;BME280;11972;48.078;11.876;2023-12-14T05:23:46;94757.25;;;4.55;100.00
23589;BME280;11972;48.078;11.876;2023-12-14T05:27:46;94775.88;;;4.52;100.00
23589;BME280;11972;48.078;11.876;2023-12-14T05:31:46;94776.38;;;4.47;100.00
23589;BME280;11972;48.078;11.876;2023-12-14T05:35:47;94788.63;;;4.46;100.00
23589;BME280;11972;48.078;11.876;2023-12-14T05:39:47;94796.66;;;4.45;100.00
23589;BME280;11972;48.078;11.876;2023-12-14T05:43:47;94803.69;;;4.44;100.00
23589;BME280;11972;48.078;11.876;2023-12-14T05:47:48;94816.75;;;4.44;100.00
23589;BME280;11972;48.078;11.876;2023-12-14T05:51:48;94821.97;;;4.44;100.00
23589;BME280;11972;48.078;11.876;2023-12-14T05:55:48;94827.22;;;4.44;100.00
23589;BME280;11972;48.078;11.876;2023-12-14T05:59:50;94836.00;;;4.43;100.00
23589;BME280;11972;48.078;11.876;2023-12-14T06:03:50;94839.63;;;4.42;100.00
23589;BME280;11972;48.078;11.876;2023-12-14T06:07:51;94851.69;;;4.43;100.00
23589;BME280;11972;48.078;11.876;2023-12-14T06:11:51;94858.59;;;4.44;100.00
23589;BME280;11972;48.078;11.876;2023-12-14T06:15:52;94861.84;;;4.46;100.00
23589;BME280;11972;48.078;11.876;2023-12-14T06:19:52;94872.31;;;4.46;100.00
23589;BME280;11972;48.078;11.876;2023-12-14T06:23:53;94873.94;;;4.47;100.00
23589;BME280;11972;48.078;11.876;2023-12-14T06:27:53;94879.16;;;4.47;100.00
23589;BME280;11972;48.078;11.876;2023-12-14T06:31:55;94890.63;;;4.46;100.00
23589;BME280;11972;48.078;11.876;2023-12-14T06:35:55;94893.22;;;4.46;100.00
23589;BME280;11972;48.078;11.876;2023-12-14T06:39:55;94908.91;;;4.46;100.00
23589;BME280;11972;48.078;11.876;2023-12-14T06:43:55;94910.53;;;4.47;100.00
23589;BME280;11972;48.078;11.876;2023-12-14T06:47:56;94919.06;;;4.50;100.00
23589;BME280;11972;48.078;11.876;2023-12-14T06:51:56;94923.00;;;4.54;100.00
23589;BME280;11972;48.078;11.876;2023-12-14T06:55:56;94926.44;;;4.54;100.00
23589;BME280;11972;48.078;11.876;2023-12-14T06:59:57;94933.16;;;4.57;100.00
23589;BME280;11972;48.078;11.876;2023-12-14T07:03:57;94944.25;;;4.59;100.00
23589;BME280;11972;48.078;11.876;2023-12-14T07:07:57;94946.22;;;4.57;100.00
23589;BME280;11972;48.078;11.876;2023-12-14T07:11:58;94956.34;;;4.60;100.00
23589;BME280;11972;48.078;11.876;2023-12-14T07:16:06;94965.19;;;4.59;100.00
23589;BME280;11972;48.078;11.876;2023-12-14T07:20:08;94968.44;;;4.61;100.00
23589;BME280;11972;48.078;11.876;2023-12-14T07:24:08;94968.94;;;4.64;100.00
23589;BME280;11972;48.078;11.876;2023-12-14T07:28:09;94968.13;;;4.64;100.00
23589;BME280;11972;48.078;11.876;2023-12-14T07:32:09;94982.53;;;4.68;100.00
23589;BME280;11972;48.078;11.876;2023-12-14T07:36:10;94990.06;;;4.71;100.00
23589;BME280;11972;48.078;11.876;2023-12-14T07:40:10;94998.91;;;4.70;100.00
23589;BME280;11972;48.078;11.876;2023-12-14T07:44:10;95011.81;;;4.71;100.00
23589;BME280;11972;48.078;11.876;2023-12-14T07:48:11;95017.03;;;4.71;100.00
23589;BME280;11972;48.078;11.876;2023-12-14T07:52:14;95022.09;;;4.73;100.00
23589;BME280;11972;48.078;11.876;2023-12-14T07:56:14;95036.69;;;4.76;100.00
23589;BME280;11972;48.078;11.876;2023-12-14T08:00:15;95030.31;;;4.78;100.00
23589;BME280;11972;48.078;11.876;2023-12-14T08:04:16;95035.56;;;4.78;100.00
23589;BME280;11972;48.078;11.876;2023-12-14T08:08:16;95047.81;;;4.78;100.00
23589;BME280;11972;48.078;11.876;2023-12-14T08:12:17;95050.28;;;4.79;100.00
23589;BME280;11972;48.078;11.876;2023-12-14T08:16:18;95053.53;;;4.81;100.00
23589;BME280;11972;48.078;11.876;2023-12-14T08:20:18;95064.19;;;4.88;100.00
23589;BME280;11972;48.078;11.876;2023-12-14T08:24:19;95066.50;;;4.91;100.00
23589;BME280;11972;48.078;11.876;2023-12-14T08:28:19;95075.19;;;4.91;100.00
23589;BME280;11972;48.078;11.876;2023-12-14T08:32:19;95072.91;;;4.96;100.00
23589;BME280;11972;48.078;11.876;2023-12-14T08:36:20;95088.31;;;5.08;100.00
23589;BME280;11972;48.078;11.876;2023-12-14T08:40:20;95094.72;;;5.13;100.00
23589;BME280;11972;48.078;11.876;2023-12-14T08:44:20;95105.06;;;5.23;100.00
23589;BME280;11972;48.078;11.876;2023-12-14T08:48:21;95108.84;;;5.29;100.00
23589;BME280;11972;48.078;11.876;2023-12-14T08:52:21;95114.25;;;5.35;100.00
23589;BME280;11972;48.078;11.876;2023-12-14T08:56:21;95117.53;;;5.45;100.00
23589;BME280;11972;48.078;11.876;2023-12-14T09:00:22;95125.41;;;5.45;100.00
23589;BME280;11972;48.078;11.876;2023-12-14T09:04:23;95121.78;;;5.46;100.00
23589;BME280;11972;48.078;11.876;2023-12-14T09:08:24;95140.00;;;5.48;100.00
23589;BME280;11972;48.078;11.876;2023-12-14T09:12:24;95150.97;;;5.52;100.00
23589;BME280;11972;48.078;11.876;2023-12-14T09:16:24;95154.25;;;5.54;100.00
23589;BME280;11972;48.078;11.876;2023-12-14T09:20:25;95157.03;;;5.52;100.00
23589;BME280;11972;48.078;11.876;2023-12-14T09:24:25;95165.53;;;5.54;100.00
23589;BME280;11972;48.078;11.876;2023-12-14T09:28:25;95162.78;;;5.56;100.00
23589;BME280;11972;48.078;11.876;2023-12-14T09:32:26;95179.16;;;5.66;100.00
23589;BME280;11972;48.078;11.876;2023-12-14T09:36:27;95176.25;;;5.77;100.00
23589;BME280;11972;48.078;11.876;2023-12-14T09:40:27;95194.09;;;5.82;100.00
23589;BME280;11972;48.078;11.876;2023-12-14T09:44:28;95190.00;;;5.87;100.00
23589;BME280;11972;48.078;11.876;2023-12-14T09:48:29;95197.44;;;6.00;100.00
23589;BME280;11972;48.078;11.876;2023-12-14T09:52:29;95195.50;;;6.18;100.00
23589;BME280;11972;48.078;11.876;2023-12-14T09:56:30;95204.19;;;6.35;100.00
23589;BME280;11972;48.078;11.876;2023-12-14T10:00:33;95204.38;;;6.34;100.00
23589;BME280;11972;48.078;11.876;2023-12-14T10:04:35;95212.22;;;6.42;100.00
23589;BME280;11972;48.078;11.876;2023-12-14T10:08:35;95210.41;;;6.26;100.00
23589;BME280;11972;48.078;11.876;2023-12-14T10:12:53;95230.41;;;6.11;100.00
23589;BME280;11972;48.078;11.876;2023-12-14T10:16:54;95237.25;;;5.95;100.00
23589;BME280;11972;48.078;11.876;2023-12-14T10:20:55;95229.00;;;5.82;100.00
23589;BME280;11972;48.078;11.876;2023-12-14T10:24:57;95233.91;;;5.77;100.00
23589;BME280;11972;48.078;11.876;2023-12-14T10:28:57;95222.75;;;5.83;100.00
23589;BME280;11972;48.078;11.876;2023-12-14T10:32:57;95222.75;;;5.83;100.00
23589;BME280;11972;48.078;11.876;2023-12-14T10:36:59;95231.31;;;5.85;100.00
23589;BME280;11972;48.078;11.876;2023-12-14T10:40:59;95229.47;;;5.78;100.00
23589;BME280;11972;48.078;11.876;2023-12-14T10:45:02;95228.97;;;5.74;100.00
23589;BME280;11972;48.078;11.876;2023-12-14T10:49:03;95240.31;;;5.91;100.00
23589;BME280;11972;48.078;11.876;2023-12-14T10:53:04;95248.91;;;6.09;100.00
23589;BME280;11972;48.078;11.876;2023-12-14T10:57:04;95254.28;;;6.00;100.00
23589;BME280;11972;48.078;11.876;2023-12-14T11:01:07;95248.97;;;5.83;100.00
23589;BME280;11972;48.078;11.876;2023-12-14T11:05:11;95259.78;;;5.72;100.00
23589;BME280;11972;48.078;11.876;2023-12-14T11:09:12;95259.91;;;5.28;100.00
23589;BME280;11972;48.078;11.876;2023-12-14T11:13:17;95269.66;;;5.18;100.00
23589;BME280;11972;48.078;11.876;2023-12-14T11:17:18;95268.53;;;5.20;100.00
23589;BME280;11972;48.078;11.876;2023-12-14T11:21:18;95279.00;;;5.20;100.00
23589;BME280;11972;48.078;11.876;2023-12-14T11:25:24;95283.13;;;5.23;100.00
23589;BME280;11972;48.078;11.876;2023-12-14T11:29:25;95291.88;;;5.14;100.00
23589;BME280;11972;48.078;11.876;2023-12-14T11:33:25;95286.81;;;5.12;100.00
23589;BME280;11972;48.078;11.876;2023-12-14T11:37:28;95293.63;;;5.31;100.00
23589;BME280;11972;48.078;11.876;2023-12-14T11:41:29;95299.66;;;5.58;100.00
23589;BME280;11972;48.078;11.876;2023-12-14T11:45:31;95311.19;;;5.73;100.00
23589;BME280;11972;48.078;11.876;2023-12-14T11:49:32;95302.69;;;5.79;100.00
23589;BME280;11972;48.078;11.876;2023-12-14T11:53:32;95300.78;;;5.89;100.00
23589;BME280;11972;48.078;11.876;2023-12-14T11:57:34;95300.97;;;5.96;100.00
23589;BME280;11972;48.078;11.876;2023-12-14T12:01:34;95309.50;;;5.98;100.00
23589;BME280;11972;48.078;11.876;2023-12-14T12:05:38;95308.56;;;6.07;100.00
23589;BME280;11972;48.078;11.876;2023-12-14T12:09:41;95306.59;;;6.09;100.00
23589;BME280;11972;48.078;11.876;2023-12-14T12:13:42;95324.09;;;6.01;100.00
23589;BME280;11972;48.078;11.876;2023-12-14T12:17:42;95314.53;;;5.91;100.00
23589;BME280;11972;48.078;11.876;2023-12-14T12:21:44;95323.63;;;5.97;100.00
23589;BME280;11972;48.078;11.876;2023-12-14T12:25:44;95326.69;;;5.92;100.00
23589;BME280;11972;48.078;11.876;2023-12-14T12:29:45;95320.50;;;6.02;100.00
23589;BME280;11972;48.078;11.876;2023-12-14T12:33:45;95329.59;;;6.24;100.00
23589;BME280;11972;48.078;11.876;2023-12-14T12:37:45;95327.78;;;6.32;100.00
23589;BME280;11972;48.078;11.876;2023-12-14T12:41:46;95329.63;;;6.40;100.00
23589;BME280;11972;48.078;11.876;2023-12-14T12:45:46;95336.19;;;6.44;100.00
23589;BME280;11972;48.078;11.876;2023-12-14T12:49:47;95337.81;;;6.45;100.00
23589;BME280;11972;48.078;11.876;2023-12-14T12:53:47;95334.88;;;6.48;100.00
23589;BME280;11972;48.078;11.876;2023-12-14T12:57:48;95347.19;;;6.56;100.00
23589;BME280;11972;48.078;11.876;2023-12-14T13:01:49;95347.53;;;6.61;100.00
23589;BME280;11972;48.078;11.876;2023-12-14T13:05:51;95349.81;;;6.56;100.00
23589;BME280;11972;48.078;11.876;2023-12-14T13:09:51;95359.31;;;6.49;100.00
23589;BME280;11972;48.078;11.876;2023-12-14T13:13:51;95367.97;;;6.41;100.00
23589;BME280;11972;48.078;11.876;2023-12-14T13:17:52;95369.16;;;6.38;100.00
23589;BME280;11972;48.078;11.876;2023-12-14T13:21:52;95386.31;;;6.33;100.00
23589;BME280;11972;48.078;11.876;2023-12-14T13:25:52;95378.47;;;6.41;100.00
23589;BME280;11972;48.078;11.876;2023-12-14T13:29:53;95385.38;;;6.42;100.00
23589;BME280;11972;48.078;11.876;2023-12-14T13:33:53;95401.41;;;6.31;100.00
23589;BME280;11972;48.078;11.876;2023-12-14T13:37:54;95407.13;;;6.26;100.00
23589;BME280;11972;48.078;11.876;2023-12-14T13:41:54;95404.47;;;6.18;100.00
23589;BME280;11972;48.078;11.876;2023-12-14T13:45:55;95415.59;;;6.12;100.00
23589;BME280;11972;48.078;11.876;2023-12-14T13:49:58;95428.81;;;6.02;100.00
23589;BME280;11972;48.078;11.876;2023-12-14T13:53:58;95441.91;;;5.94;100.00
23589;BME280;11972;48.078;11.876;2023-12-14T13:57:59;95441.22;;;5.92;100.00
23589;BME280;11972;48.078;11.876;2023-12-14T14:02:00;95446.31;;;5.93;100.00
23589;BME280;11972;48.078;11.876;2023-12-14T14:06:01;95456.09;;;5.91;100.00
23589;BME280;11972;48.078;11.876;2023-12-14T14:10:02;95463.13;;;5.91;100.00
23589;BME280;11972;48.078;11.876;2023-12-14T14:14:03;95464.66;;;5.93;100.00
23589;BME280;11972;48.078;11.876;2023-12-14T14:18:06;95484.66;;;5.94;100.00
23589;BME280;11972;48.078;11.876;2023-12-14T14:22:06;95482.31;;;5.91;100.00
23589;BME280;11972;48.078;11.876;2023-12-14T14:26:07;95495.06;;;5.86;100.00
23589;BME280;11972;48.078;11.876;2023-12-14T14:30:08;95504.22;;;5.82;100.00
23589;BME280;11972;48.078;11.876;2023-12-14T14:34:08;95502.22;;;5.76;100.00
23589;BME280;11972;48.078;11.876;2023-12-14T14:38:09;95512.31;;;5.71;100.00
23589;BME280;11972;48.078;11.876;2023-12-14T14:42:09;95512.31;;;5.71;100.00
23589;BME280;11972;48.078;11.876;2023-12-14T14:46:10;95525.88;;;5.66;100.00
23589;BME280;11972;48.078;11.876;2023-12-14T14:50:10;95530.91;;;5.60;100.00
23589;BME280;11972;48.078;11.876;2023-12-14T14:54:11;95526.88;;;5.47;100.00
23589;BME280;11972;48.078;11.876;2023-12-14T14:58:11;95550.97;;;5.33;100.00
23589;BME280;11972;48.078;11.876;2023-12-14T15:02:11;95556.31;;;5.14;100.00
23589;BME280;11972;48.078;11.876;2023-12-14T15:06:12;95558.91;;;4.96;100.00
23589;BME280;11972;48.078;11.876;2023-12-14T15:10:12;95565.69;;;4.89;100.00
23589;BME280;11972;48.078;11.876;2023-12-14T15:14:13;95575.25;;;4.80;100.00
23589;BME280;11972;48.078;11.876;2023-12-14T15:18:13;95586.97;;;4.76;100.00
23589;BME280;11972;48.078;11.876;2023-12-14T15:22:13;95589.94;;;4.63;100.00
23589;BME280;11972;48.078;11.876;2023-12-14T15:26:14;95597.94;;;4.52;100.00
23589;BME280;11972;48.078;11.876;2023-12-14T15:30:16;95611.22;;;4.41;100.00
23589;BME280;11972;48.078;11.876;2023-12-14T15:34:16;95609.88;;;4.27;100.00
23589;BME280;11972;48.078;11.876;2023-12-14T15:38:18;95607.44;;;4.16;100.00
23589;BME280;11972;48.078;11.876;2023-12-14T15:42:19;95612.09;;;4.03;100.00
23589;BME280;11972;48.078;11.876;2023-12-14T15:46:19;95613.50;;;3.97;100.00
23589;BME280;11972;48.078;11.876;2023-12-14T15:50:20;95619.53;;;3.97;100.00
23589;BME280;11972;48.078;11.876;2023-12-14T15:54:22;95629.84;;;4.09;100.00
23589;BME280;11972;48.078;11.876;2023-12-14T15:58:23;95628.88;;;4.19;100.00
23589;BME280;11972;48.078;11.876;2023-12-14T16:02:23;95632.44;;;4.28;100.00
23589;BME280;11972;48.078;11.876;2023-12-14T16:06:23;95634.75;;;4.31;100.00
23589;BME280;11972;48.078;11.876;2023-12-14T16:10:24;95640.69;;;4.33;100.00
23589;BME280;11972;48.078;11.876;2023-12-14T16:14:24;95655.25;;;4.36;100.00
23589;BME280;11972;48.078;11.876;2023-12-14T16:18:24;95646.59;;;4.35;100.00
23589;BME280;11972;48.078;11.876;2023-12-14T16:22:25;95657.88;;;4.36;100.00
23589;BME280;11972;48.078;11.876;2023-12-14T16:26:25;95660.38;;;4.37;100.00
23589;BME280;11972;48.078;11.876;2023-12-14T16:30:26;95659.41;;;4.38;100.00
23589;BME280;11972;48.078;11.876;2023-12-14T16:34:26;95670.00;;;4.37;100.00
23589;BME280;11972;48.078;11.876;2023-12-14T16:38:26;95663.94;;;4.36;100.00
23589;BME280;11972;48.078;11.876;2023-12-14T16:42:27;95672.63;;;4.37;100.00
23589;BME280;11972;48.078;11.876;2023-12-14T16:46:27;95680.59;;;4.35;100.00
23589;BME280;11972;48.078;11.876;2023-12-14T16:50:28;95688.44;;;4.35;100.00
23589;BME280;11972;48.078;11.876;2023-12-14T16:54:28;95688.31;;;4.37;100.00
23589;BME280;11972;48.078;11.876;2023-12-14T16:58:28;95697.94;;;4.36;100.00
23589;BME280;11972;48.078;11.876;2023-12-14T17:02:29;95704.00;;;4.37;100.00
23589;BME280;11972;48.078;11.876;2023-12-14T17:06:31;95706.63;;;4.37;100.00
23589;BME280;11972;48.078;11.876;2023-12-14T17:10:32;95712.94;;;4.34;100.00
23589;BME280;11972;48.078;11.876;2023-12-14T17:14:32;95717.19;;;4.35;100.00
23589;BME280;11972;48.078;11.876;2023-12-14T17:18:35;95718.88;;;4.36;100.00
23589;BME280;11972;48.078;11.876;2023-12-14T17:22:35;95740.75;;;4.35;100.00
23589;BME280;11972;48.078;11.876;2023-12-14T17:26:40;95746.66;;;4.37;100.00
23589;BME280;11972;48.078;11.876;2023-12-14T17:30:40;95748.31;;;4.38;100.00
23589;BME280;11972;48.078;11.876;2023-12-14T17:34:40;95760.41;;;4.39;100.00
23589;BME280;11972;48.078;11.876;2023-12-14T17:38:41;95768.97;;;4.41;100.00
23589;BME280;11972;48.078;11.876;2023-12-14T17:42:42;95773.22;;;4.42;100.00
23589;BME280;11972;48.078;11.876;2023-12-14T17:46:42;95775.56;;;4.45;100.00
23589;BME280;11972;48.078;11.876;2023-12-14T17:50:42;95784.91;;;4.48;100.00
23589;BME280;11972;48.078;11.876;2023-12-14T17:54:43;95794.28;;;4.51;100.00
23589;BME280;11972;48.078;11.876;2023-12-14T17:58:43;95802.84;;;4.53;100.00
23589;BME280;11972;48.078;11.876;2023-12-14T18:02:45;95805.31;;;4.54;100.00
23589;BME280;11972;48.078;11.876;2023-12-14T18:06:45;95809.44;;;4.57;100.00
23589;BME280;11972;48.078;11.876;2023-12-14T18:10:47;95811.09;;;4.58;100.00
23589;BME280;11972;48.078;11.876;2023-12-14T18:14:48;95818.25;;;4.56;100.00
23589;BME280;11972;48.078;11.876;2023-12-14T18:18:48;95828.44;;;4.59;100.00
23589;BME280;11972;48.078;11.876;2023-12-14T18:22:49;95827.34;;;4.61;100.00
23589;BME280;11972;48.078;11.876;2023-12-14T18:26:49;95828.44;;;4.59;100.00
23589;BME280;11972;48.078;11.876;2023-12-14T18:30:49;95835.31;;;4.60;100.00
23589;BME280;11972;48.078;11.876;2023-12-14T18:34:50;95841.53;;;4.59;100.00
23589;BME280;11972;48.078;11.876;2023-12-14T18:38:50;95847.97;;;4.55;100.00
23589;BME280;11972;48.078;11.876;2023-12-14T18:42:51;95865.31;;;4.56;100.00
23589;BME280;11972;48.078;11.876;2023-12-14T18:46:52;95867.81;;;4.57;100.00
23589;BME280;11972;48.078;11.876;2023-12-14T18:50:52;95872.25;;;4.57;100.00
23589;BME280;11972;48.078;11.876;2023-12-14T18:54:56;95875.53;;;4.59;100.00
23589;BME280;11972;48.078;11.876;2023-12-14T18:58:57;95886.81;;;4.59;100.00
23589;BME280;11972;48.078;11.876;2023-12-14T19:02:57;95897.28;;;4.59;100.00
23589;BME280;11972;48.078;11.876;2023-12-14T19:06:58;95900.72;;;4.60;100.00
23589;BME280;11972;48.078;11.876;2023-12-14T19:10:58;95914.09;;;4.57;100.00
23589;BME280;11972;48.078;11.876;2023-12-14T19:14:59;95903.91;;;4.54;100.00
23589;BME280;11972;48.078;11.876;2023-12-14T19:19:00;95911.84;;;4.52;100.00
23589;BME280;11972;48.078;11.876;2023-12-14T19:23:01;95913.81;;;4.50;100.00
23589;BME280;11972;48.078;11.876;2023-12-14T19:27:05;95910.78;;;4.45;100.00
23589;BME280;11972;48.078;11.876;2023-12-14T19:31:09;95924.78;;;4.44;100.00
23589;BME280;11972;48.078;11.876;2023-12-14T19:35:11;95926.56;;;4.43;100.00
23589;BME280;11972;48.078;11.876;2023-12-14T19:39:12;95929.34;;;4.42;100.00
23589;BME280;11972;48.078;11.876;2023-12-14T19:43:13;95934.97;;;4.37;100.00
23589;BME280;11972;48.078;11.876;2023-12-14T19:47:13;95937.59;;;4.37;100.00
23589;BME280;11972;48.078;11.876;2023-12-14T19:51:13;95951.63;;;4.36;100.00
23589;BME280;11972;48.078;11.876;2023-12-14T19:55:14;95957.38;;;4.30;100.00
23589;BME280;11972;48.078;11.876;2023-12-14T19:59:14;95959.31;;;4.28;100.00
23589;BME280;11972;48.078;11.876;2023-12-14T20:03:15;95960.97;;;4.29;100.00
23589;BME280;11972;48.078;11.876;2023-12-14T20:07:16;95972.41;;;4.28;100.00
23589;BME280;11972;48.078;11.876;2023-12-14T20:11:29;95973.78;;;4.32;100.00
23589;BME280;11972;48.078;11.876;2023-12-14T20:15:32;95988.38;;;4.35;100.00
23589;BME280;11972;48.078;11.876;2023-12-14T20:19:36;95990.72;;;4.38;100.00
23589;BME280;11972;48.078;11.876;2023-12-14T20:23:37;95988.94;;;4.38;100.00
23589;BME280;11972;48.078;11.876;2023-12-14T20:27:40;95998.44;;;4.39;100.00
23589;BME280;11972;48.078;11.876;2023-12-14T20:31:40;95992.13;;;4.42;100.00
23589;BME280;11972;48.078;11.876;2023-12-14T20:35:44;95997.50;;;4.40;100.00
23589;BME280;11972;48.078;11.876;2023-12-14T20:39:45;96003.81;;;4.38;100.00
23589;BME280;11972;48.078;11.876;2023-12-14T20:43:48;96024.41;;;4.31;100.00
23589;BME280;11972;48.078;11.876;2023-12-14T20:47:48;96024.94;;;4.25;100.00
23589;BME280;11972;48.078;11.876;2023-12-14T20:51:48;96028.53;;;4.24;100.00
23589;BME280;11972;48.078;11.876;2023-12-14T20:55:49;96046.84;;;4.24;100.00
23589;BME280;11972;48.078;11.876;2023-12-14T20:59:49;96041.47;;;4.26;100.00